createdAt,value
2023-04-26T05:13:09.181Z,98529.9
2023-04-26T05:18:42.790Z,98539.1
2023-04-26T05:24:18.253Z,98535.5
2023-04-26T05:29:53.493Z,98545.1
2023-04-26T05:35:29.494Z,98546.7
2023-04-26T05:41:05.177Z,98544.7
2023-04-26T05:46:41.396Z,98558.7
2023-04-26T05:52:18.068Z,98567.5
2023-04-26T05:57:53.520Z,98562.8
2023-04-26T06:03:30.568Z,98568.4
2023-04-26T06:09:07.724Z,98574.8
2023-04-26T06:14:43.177Z,98579.5
2023-04-26T06:20:18.412Z,98584.8
2023-04-26T06:25:54.670Z,98590.5
2023-04-26T06:31:30.414Z,98590.5
2023-04-26T06:37:07.652Z,98589.3
2023-04-26T06:42:44.323Z,98588.1
2023-04-26T06:48:19.788Z,98594.4
2023-04-26T06:53:56.574Z,98592
2023-04-26T06:59:31.829Z,98594.3
2023-04-26T07:05:07.828Z,98597.8
2023-04-26T07:11:06.394Z,98593.4
2023-04-26T07:16:40.189Z,98589.7
2023-04-26T07:22:17.796Z,98592.9
2023-04-26T07:27:54.534Z,98592.9
2023-04-26T07:33:32.205Z,98598.3
2023-04-26T07:39:10.637Z,98602.8
2023-04-26T07:44:46.387Z,98606.2
2023-04-26T07:50:23.064Z,98601.5
2023-04-26T07:56:02.574Z,98602.9
2023-04-26T08:01:39.173Z,98599.5
2023-04-26T08:07:15.259Z,98603.6
2023-04-26T08:12:50.816Z,98595.3
2023-04-26T08:18:28.155Z,98596.8
2023-04-26T08:24:05.620Z,98588.6
2023-04-26T08:29:41.541Z,98596.9
2023-04-26T08:35:17.024Z,98604.4
2023-04-26T08:40:52.768Z,98606.1
2023-04-26T08:46:28.564Z,98600.5
2023-04-26T08:52:06.190Z,98595.8
2023-04-26T08:57:41.797Z,98599.8
2023-04-26T09:03:18.722Z,98593.7
2023-04-26T09:08:55.991Z,98596.4
2023-04-26T09:14:31.103Z,98596
2023-04-26T09:20:08.750Z,98596.1
2023-04-26T09:25:45.740Z,98600.9
2023-04-26T09:31:22.463Z,98596.3
2023-04-26T09:36:59.989Z,98583.1
2023-04-26T09:42:35.223Z,98589.3
2023-04-26T09:48:11.278Z,98596.9
2023-04-26T09:53:46.776Z,98586.2
2023-04-26T09:59:23.483Z,98583.3
2023-04-26T10:04:59.265Z,98574.5
2023-04-26T10:10:58.517Z,98572.5
2023-04-26T10:16:32.334Z,98569.2
2023-04-26T10:22:07.892Z,98566.9
2023-04-26T10:27:43.512Z,98567.2
2023-04-26T10:33:19.481Z,98567.9
2023-04-26T10:38:56.195Z,98563.8
2023-04-26T10:44:31.579Z,98550
2023-04-26T10:50:07.869Z,98539.8
2023-04-26T10:55:44.258Z,98541.7
2023-04-26T11:01:21.592Z,98537.6
2023-04-26T11:06:57.768Z,98538.6
2023-04-26T11:12:33.727Z,98527.4
2023-04-26T11:18:09.516Z,98523
2023-04-26T11:23:44.999Z,98522.2
2023-04-26T11:29:21.353Z,98513
2023-04-26T11:34:56.808Z,98508.4
2023-04-26T11:40:33.555Z,98511.8
2023-04-26T11:46:10.204Z,98504.4
2023-04-26T11:51:47.226Z,98510.4
2023-04-26T11:57:23.682Z,98511.1
2023-04-26T12:03:01.347Z,98505.7
2023-04-26T12:08:37.993Z,98512
2023-04-26T12:14:13.715Z,98512.8
2023-04-26T12:19:49.329Z,98507.8
2023-04-26T12:25:24.528Z,98504.6
2023-04-26T12:31:01.057Z,98505.6
2023-04-26T12:36:37.408Z,98513.1
2023-04-26T12:42:12.872Z,98504.9
2023-04-26T12:47:49.752Z,98503.5
2023-04-26T12:53:25.380Z,98501.5
2023-04-26T12:59:01.117Z,98506.2
2023-04-26T13:04:42.590Z,98505.2
2023-04-26T13:10:20.668Z,98509
2023-04-26T13:15:55.864Z,98506.2
2023-04-26T13:21:31.946Z,98505.3
2023-04-26T13:27:08.611Z,98512
2023-04-26T13:32:45.371Z,98506
2023-04-26T13:38:23.554Z,98501.6
2023-04-26T13:44:01.936Z,98495
2023-04-26T13:49:39.073Z,98492.8
2023-04-26T13:55:16.117Z,98488.7
2023-04-26T14:00:51.392Z,98483.6
2023-04-26T14:06:26.391Z,98485.8
2023-04-26T14:12:09.651Z,98485.2
2023-04-26T14:17:47.509Z,98487.1
2023-04-26T14:23:23.268Z,98484.1
2023-04-26T14:29:00.263Z,98488.3
2023-04-26T14:34:35.916Z,98482.2
2023-04-26T14:40:12.097Z,98482
2023-04-26T14:45:47.834Z,98485.7
2023-04-26T14:51:25.694Z,98487.4
2023-04-26T14:57:00.651Z,98485.3
2023-04-26T15:02:37.199Z,98489.8
2023-04-26T15:08:17.300Z,98486.3
2023-04-26T15:13:54.456Z,98488
2023-04-26T15:19:29.916Z,98487.9
2023-04-26T15:25:04.768Z,98489.8
2023-04-26T15:30:40.681Z,98491.2
2023-04-26T15:36:16.316Z,98483.8
2023-04-26T15:41:53.015Z,98480.6
2023-04-26T15:47:28.677Z,98480.9
2023-04-26T15:53:04.937Z,98479.5
2023-04-26T15:58:42.656Z,98482.4
2023-04-26T16:04:20.235Z,98478.2
2023-04-26T16:09:58.937Z,98481.2
2023-04-26T16:15:34.356Z,98479.2
2023-04-26T16:21:10.236Z,98491.1
2023-04-26T16:26:45.522Z,98496.5
2023-04-26T16:32:20.933Z,98496.2
2023-04-26T16:37:56.969Z,98501.5
2023-04-26T16:43:32.658Z,98498.3
2023-04-26T16:49:08.760Z,98501.5
2023-04-26T16:54:44.521Z,98505.5
2023-04-26T17:00:20.330Z,98504.4
2023-04-26T17:05:55.845Z,98507.6
2023-04-26T17:11:31.225Z,98513.2
2023-04-26T17:17:07.047Z,98506.6
2023-04-26T17:22:43.084Z,98505.3
2023-04-26T17:28:18.036Z,98506.2
2023-04-26T17:33:55.196Z,98506.1
2023-04-26T17:39:31.524Z,98507.4
2023-04-26T17:45:07.819Z,98517.3
2023-04-26T17:51:00.068Z,98513.9
2023-04-26T17:56:40.523Z,98514.3
2023-04-26T18:02:17.849Z,98516.5
2023-04-26T18:07:54.423Z,98515.4
2023-04-26T18:13:30.872Z,98520.3
2023-04-26T18:19:06.646Z,98511.8
2023-04-26T18:24:41.856Z,98505.6
2023-04-26T18:30:18.305Z,98512.8
2023-04-26T18:35:54.048Z,98517
2023-04-26T18:41:30.283Z,98521.7
2023-04-26T18:47:06.334Z,98528
2023-04-26T18:52:41.629Z,98527.8
2023-04-26T18:58:17.403Z,98529.1
2023-04-26T19:03:53.825Z,98535
2023-04-26T19:09:55.134Z,98535
2023-04-26T19:15:36.639Z,98533.3
2023-04-26T19:21:13.037Z,98528.4
2023-04-26T19:26:49.676Z,98536
2023-04-26T19:32:24.973Z,98538.9
2023-04-26T19:38:00.570Z,98552.8
2023-04-26T19:43:36.008Z,98559.5
2023-04-26T19:49:12.463Z,98564.5
2023-04-26T19:54:48.941Z,98567.4
2023-04-26T20:00:24.597Z,98573.1
2023-04-26T20:06:02.241Z,98582.2
2023-04-26T20:12:00.931Z,98592.4
2023-04-26T20:17:34.870Z,98593.3
2023-04-26T20:23:10.807Z,98587.8
2023-04-26T20:28:47.124Z,98599.7
2023-04-26T20:34:23.212Z,98597.8
2023-04-26T20:39:58.710Z,98603.7
2023-04-26T20:45:35.059Z,98603
2023-04-26T20:51:10.133Z,98604.8
2023-04-26T20:56:45.732Z,98609.2
2023-04-26T21:02:22.183Z,98612.3
2023-04-26T21:08:01.466Z,98605.7
2023-04-26T21:13:37.248Z,98602.9
